createdAt,value
2022-09-18T00:01:41.468Z,16.84
2022-09-18T00:04:19.692Z,16.81
2022-09-18T00:06:47.572Z,16.86
2022-09-18T00:09:16.120Z,16.87
2022-09-18T00:11:47.257Z,16.89
2022-09-18T00:14:22.835Z,16.90
2022-09-18T00:16:51.311Z,16.86
2022-09-18T00:19:20.310Z,16.87
2022-09-18T00:21:51.291Z,16.93
2022-09-18T00:24:19.641Z,16.83
2022-09-18T00:26:48.389Z,16.91
2022-09-18T00:29:18.023Z,16.84
2022-09-18T00:31:46.448Z,16.82
2022-09-18T00:34:15.914Z,16.88
2022-09-18T00:36:47.479Z,16.81
2022-09-18T00:39:16.211Z,16.79
2022-09-18T00:41:45.212Z,16.75
2022-09-18T00:45:07.135Z,16.72
2022-09-18T00:47:48.415Z,16.74
2022-09-18T00:50:27.231Z,16.73
2022-09-18T00:53:03.363Z,16.70
2022-09-18T00:55:34.548Z,16.69
2022-09-18T00:58:06.880Z,16.68
2022-09-18T01:00:35.464Z,16.68
2022-09-18T01:03:23.202Z,16.68
2022-09-18T01:06:06.232Z,16.72
2022-09-18T01:08:54.331Z,16.72
2022-09-18T01:11:28.048Z,16.71
2022-09-18T01:14:27.593Z,16.74
2022-09-18T01:17:17.137Z,16.71
2022-09-18T01:20:47.104Z,16.56
2022-09-18T01:23:58.451Z,16.62
2022-09-18T01:26:43.718Z,16.65
2022-09-18T01:29:51.433Z,16.64
2022-09-18T01:32:47.148Z,16.62
2022-09-18T01:35:40.060Z,16.56
2022-09-18T01:38:33.641Z,16.63
2022-09-18T01:41:19.802Z,16.63
2022-09-18T01:43:54.776Z,16.61
2022-09-18T01:46:25.653Z,16.58
2022-09-18T01:49:18.255Z,16.68
2022-09-18T01:52:08.634Z,16.66
2022-09-18T01:54:42.916Z,16.64
2022-09-18T01:57:39.224Z,16.71
2022-09-18T02:00:11.447Z,16.68
2022-09-18T02:02:54.907Z,16.72
2022-09-18T02:05:48.377Z,16.65
2022-09-18T02:08:22.782Z,16.68
2022-09-18T02:11:13.060Z,16.72
2022-09-18T02:14:07.402Z,16.72
2022-09-18T02:17:03.921Z,16.64
2022-09-18T02:19:42.755Z,16.67
2022-09-18T02:22:18.053Z,16.65
2022-09-18T02:24:50.973Z,16.61
2022-09-18T02:27:21.839Z,16.65
2022-09-18T02:29:49.713Z,16.56
2022-09-18T02:32:18.533Z,16.56
2022-09-18T02:34:46.769Z,16.63
2022-09-18T02:37:56.264Z,16.67
2022-09-18T02:40:55.018Z,16.63
2022-09-18T02:43:35.983Z,16.61
2022-09-18T02:46:39.147Z,16.59
2022-09-18T02:49:45.044Z,16.58
2022-09-18T02:52:28.108Z,16.56
2022-09-18T02:55:21.548Z,16.55
2022-09-18T02:58:00.926Z,16.50
2022-09-18T03:00:31.942Z,16.57
2022-09-18T03:03:02.662Z,16.56
2022-09-18T03:05:35.808Z,16.54
2022-09-18T03:08:04.804Z,16.59
2022-09-18T03:10:33.137Z,16.58
2022-09-18T03:13:01.479Z,16.52
2022-09-18T03:15:29.941Z,16.55
2022-09-18T03:17:58.924Z,16.49
2022-09-18T03:20:26.653Z,16.48
2022-09-18T03:22:55.141Z,16.52
2022-09-18T03:25:24.364Z,16.52
2022-09-18T03:27:57.709Z,16.46
2022-09-18T03:30:36.314Z,16.49
2022-09-18T03:33:04.910Z,16.41
2022-09-18T03:35:37.634Z,16.45
2022-09-18T03:38:05.658Z,16.49
2022-09-18T03:40:33.448Z,16.48
2022-09-18T03:43:06.306Z,16.46
2022-09-18T03:45:34.221Z,16.51
2022-09-18T03:48:04.946Z,16.49
2022-09-18T03:50:33.197Z,16.41
2022-09-18T03:53:01.919Z,16.46
2022-09-18T03:55:38.791Z,16.50
2022-09-18T03:58:43.423Z,16.46
2022-09-18T04:01:30.627Z,16.45
2022-09-18T04:04:18.012Z,16.51
2022-09-18T04:07:09.262Z,16.43
2022-09-18T04:10:00.798Z,16.46
2022-09-18T04:12:29.259Z,16.50
2022-09-18T04:15:11.153Z,16.56
2022-09-18T04:17:43.720Z,16.57
2022-09-18T04:20:13.323Z,16.56
2022-09-18T04:22:43.276Z,16.55
2022-09-18T04:25:11.231Z,16.54
2022-09-18T04:27:40.639Z,16.56
2022-09-18T04:30:11.425Z,16.62
2022-09-18T04:32:44.759Z,16.60
2022-09-18T04:35:13.170Z,16.56
2022-09-18T04:37:45.503Z,16.61
2022-09-18T04:40:14.285Z,16.62
2022-09-18T04:42:43.837Z,16.58
2022-09-18T04:45:13.358Z,16.64
2022-09-18T04:47:43.679Z,16.61
2022-09-18T04:50:11.528Z,16.62
2022-09-18T04:52:59.475Z,16.60
2022-09-18T04:55:28.501Z,16.62
2022-09-18T04:57:57.646Z,16.61
2022-09-18T05:00:25.884Z,16.60
2022-09-18T05:02:56.091Z,16.63
2022-09-18T05:05:29.032Z,16.62
2022-09-18T05:08:01.423Z,16.66
2022-09-18T05:10:30.931Z,16.63
2022-09-18T05:12:59.908Z,16.64
2022-09-18T05:15:32.454Z,16.57
2022-09-18T05:18:11.332Z,16.59
2022-09-18T05:20:40.895Z,16.64
2022-09-18T05:23:10.044Z,16.61
2022-09-18T05:25:38.442Z,16.59
2022-09-18T05:28:07.587Z,16.69
2022-09-18T05:30:42.610Z,16.69
2022-09-18T05:33:12.158Z,16.68
2022-09-18T05:35:42.352Z,16.65
2022-09-18T05:38:11.681Z,16.72
2022-09-18T05:40:43.447Z,16.71
2022-09-18T05:43:12.142Z,16.72
2022-09-18T05:45:40.069Z,16.73
2022-09-18T05:48:16.782Z,16.65
2022-09-18T05:50:45.847Z,16.68
2022-09-18T05:53:20.786Z,16.72
2022-09-18T05:56:18.755Z,16.74
2022-09-18T05:58:49.130Z,16.70
2022-09-18T06:01:18.505Z,16.67
2022-09-18T06:04:06.356Z,16.68
2022-09-18T06:06:59.323Z,16.70
2022-09-18T06:09:27.804Z,16.66
2022-09-18T06:11:56.194Z,16.61
2022-09-18T06:14:24.599Z,16.70
2022-09-18T06:16:52.887Z,16.72
2022-09-18T06:19:21.340Z,16.71
2022-09-18T06:21:50.089Z,16.74
2022-09-18T06:24:20.378Z,16.66
2022-09-18T06:26:59.740Z,16.76
2022-09-18T06:29:28.592Z,16.85
2022-09-18T06:32:04.577Z,16.87
2022-09-18T06:34:53.190Z,16.85
2022-09-18T06:37:22.638Z,16.96
2022-09-18T06:40:18.225Z,16.94
2022-09-18T06:43:11.083Z,16.97
2022-09-18T06:46:16.678Z,16.99
2022-09-18T06:48:49.116Z,16.80
2022-09-18T06:51:17.166Z,16.97
2022-09-18T06:54:12.381Z,17.00
2022-09-18T06:56:42.899Z,16.98
2022-09-18T06:59:14.448Z,17.07
2022-09-18T07:01:43.054Z,17.13
2022-09-18T07:04:19.853Z,17.15
2022-09-18T07:06:48.135Z,17.20
2022-09-18T07:09:16.946Z,17.11
2022-09-18T07:12:05.301Z,17.24
2022-09-18T07:14:42.018Z,17.24
2022-09-18T07:17:18.237Z,17.25
2022-09-18T07:19:51.266Z,17.25
2022-09-18T07:22:22.786Z,17.29
2022-09-18T07:24:51.252Z,17.23
2022-09-18T07:27:21.561Z,17.31
2022-09-18T07:29:51.463Z,17.31
2022-09-18T07:32:21.782Z,17.33
2022-09-18T07:34:50.925Z,17.28
2022-09-18T07:37:28.228Z,17.41
2022-09-18T07:40:12.848Z,17.48
2022-09-18T07:43:07.817Z,17.53
2022-09-18T07:45:39.485Z,17.61
2022-09-18T07:48:09.605Z,17.64
2022-09-18T07:50:42.929Z,17.69
2022-09-18T07:53:11.070Z,17.71
2022-09-18T07:55:45.355Z,17.74
2022-09-18T07:58:14.569Z,17.83
2022-09-18T08:01:06.108Z,17.87
2022-09-18T08:03:41.564Z,17.87
2022-09-18T08:06:13.861Z,17.94
2022-09-18T08:09:03.507Z,18.01
2022-09-18T08:11:58.156Z,18.05
2022-09-18T08:14:43.415Z,18.11
2022-09-18T08:17:20.286Z,18.19
2022-09-18T08:20:11.632Z,18.24
2022-09-18T08:22:45.285Z,18.33
2022-09-18T08:25:15.432Z,18.41
2022-09-18T08:27:49.658Z,18.38
2022-09-18T08:30:31.449Z,18.49
2022-09-18T08:33:24.774Z,18.58
2022-09-18T08:35:56.471Z,18.56
2022-09-18T08:38:30.723Z,18.48
2022-09-18T08:41:43.347Z,18.58
2022-09-18T08:44:25.053Z,18.58
2022-09-18T08:47:07.925Z,18.64
2022-09-18T08:49:54.115Z,18.73
2022-09-18T08:52:26.353Z,18.71
2022-09-18T08:55:21.435Z,18.86
2022-09-18T08:58:16.868Z,18.93
2022-09-18T09:00:56.629Z,18.98
2022-09-18T09:03:56.426Z,19.02
2022-09-18T09:06:55.269Z,19.11
2022-09-18T09:09:37.760Z,19.18
2022-09-18T09:12:46.472Z,19.26
2022-09-18T09:15:33.117Z,19.36
2022-09-18T09:18:38.187Z,19.42
2022-09-18T09:21:39.117Z,19.42
2022-09-18T09:24:28.292Z,19.55
2022-09-18T09:27:34.776Z,19.61
2022-09-18T09:30:36.662Z,19.63
2022-09-18T09:34:22.403Z,19.64
2022-09-18T09:36:59.528Z,19.65
2022-09-18T09:39:54.963Z,19.74
2022-09-18T09:42:40.709Z,19.83
2022-09-18T09:45:45.136Z,19.97
2022-09-18T09:48:39.526Z,20.09
2022-09-18T09:51:22.929Z,20.15
2022-09-18T09:53:55.954Z,20.20
2022-09-18T09:57:09.970Z,20.34
2022-09-18T09:59:53.179Z,20.43
2022-09-18T10:02:44.683Z,20.47
2022-09-18T10:05:29.360Z,20.56
2022-09-18T10:08:32.278Z,20.65
2022-09-18T10:11:09.175Z,20.67
2022-09-18T10:13:47.251Z,20.81
2022-09-18T10:16:27.830Z,20.86
2022-09-18T10:18:57.706Z,20.78
2022-09-18T10:21:35.364Z,20.87
2022-09-18T10:24:22.181Z,20.97
2022-09-18T10:26:57.741Z,20.96
2022-09-18T10:29:26.201Z,21.04
2022-09-18T10:32:01.126Z,21.05
2022-09-18T10:34:45.907Z,21.16
2022-09-18T10:37:30.266Z,21.21
2022-09-18T10:40:40.082Z,21.25
2022-09-18T10:43:20.408Z,21.25
2022-09-18T10:45:56.231Z,21.33
2022-09-18T10:48:36.502Z,21.26
2022-09-18T10:51:04.985Z,21.37
2022-09-18T10:53:38.829Z,21.35
2022-09-18T10:56:26.001Z,21.39
2022-09-18T10:58:56.488Z,21.40
2022-09-18T11:01:25.988Z,21.52
2022-09-18T11:04:05.893Z,21.61
2022-09-18T11:06:46.663Z,21.67
2022-09-18T11:09:41.847Z,21.68
2022-09-18T11:12:24.717Z,21.79
2022-09-18T11:15:04.759Z,21.82
2022-09-18T11:17:47.596Z,21.80
2022-09-18T11:20:30.058Z,21.81
2022-09-18T11:23:21.338Z,21.80
2022-09-18T11:26:11.536Z,21.78
2022-09-18T11:28:40.852Z,21.70
2022-09-18T11:31:18.709Z,21.78
2022-09-18T11:33:57.471Z,21.84
2022-09-18T11:36:34.457Z,21.86
2022-09-18T11:39:22.533Z,21.96
2022-09-18T11:41:55.335Z,22.05
2022-09-18T11:44:31.778Z,22.18
2022-09-18T11:47:31.147Z,22.26
2022-09-18T11:50:26.287Z,22.26
2022-09-18T11:52:59.066Z,22.19
2022-09-18T11:55:53.247Z,22.22
2022-09-18T11:58:36.831Z,22.04
2022-09-18T12:01:29.451Z,22.20
2022-09-18T12:04:17.717Z,22.24
2022-09-18T12:07:37.608Z,22.30
2022-09-18T12:10:16.272Z,22.28
2022-09-18T12:13:28.013Z,22.31
2022-09-18T12:16:21.682Z,22.38
2022-09-18T12:19:09.265Z,22.49
2022-09-18T12:22:06.576Z,22.50
2022-09-18T12:24:35.494Z,22.30
2022-09-18T12:27:31.668Z,22.37
2022-09-18T12:30:15.439Z,22.20
2022-09-18T12:33:05.710Z,22.11
2022-09-18T12:36:04.714Z,21.96
2022-09-18T12:39:02.617Z,21.89
2022-09-18T12:42:09.045Z,21.77
2022-09-18T12:45:13.715Z,21.74
2022-09-18T12:48:00.784Z,21.75
2022-09-18T12:51:22.459Z,21.68
2022-09-18T12:54:33.532Z,21.61
2022-09-18T12:57:25.782Z,21.57
2022-09-18T13:00:08.887Z,21.52
2022-09-18T13:02:57.396Z,21.47
2022-09-18T13:05:54.613Z,21.36
2022-09-18T13:08:42.752Z,21.33
2022-09-18T13:11:41.940Z,21.28
2022-09-18T13:14:39.245Z,21.23
2022-09-18T13:17:15.995Z,21.19
2022-09-18T13:20:07.489Z,21.22
2022-09-18T13:22:38.328Z,21.11
2022-09-18T13:25:38.139Z,21.09
2022-09-18T13:28:15.165Z,21.04
2022-09-18T13:30:44.105Z,21.06
2022-09-18T13:33:27.060Z,21.13
2022-09-18T13:35:58.448Z,21.14
2022-09-18T13:38:28.924Z,21.20
2022-09-18T13:41:12.388Z,21.25
2022-09-18T13:43:45.631Z,21.29
2022-09-18T13:46:38.692Z,21.37
2022-09-18T13:49:54.690Z,21.43
2022-09-18T13:52:35.249Z,21.51
2022-09-18T13:55:18.406Z,21.57
2022-09-18T13:57:46.362Z,21.53
2022-09-18T14:00:20.507Z,21.68
2022-09-18T14:03:28.113Z,21.73
2022-09-18T14:05:56.409Z,21.68
2022-09-18T14:08:27.257Z,21.70
2022-09-18T14:11:17.584Z,21.64
2022-09-18T14:13:55.510Z,21.61
2022-09-18T14:16:41.071Z,21.57
2022-09-18T14:19:36.983Z,21.47
2022-09-18T14:22:06.516Z,21.43
2022-09-18T14:24:57.471Z,21.43
2022-09-18T14:27:48.921Z,21.35
2022-09-18T14:30:29.505Z,21.31
2022-09-18T14:33:20.866Z,21.31
2022-09-18T14:36:04.556Z,21.23
2022-09-18T14:38:34.627Z,21.25
2022-09-18T14:41:31.774Z,21.18
2022-09-18T14:44:04.829Z,21.11
2022-09-18T14:46:33.441Z,21.09
2022-09-18T14:49:03.147Z,21.01
2022-09-18T14:51:44.871Z,21.00
2022-09-18T14:54:24.405Z,20.94
2022-09-18T14:56:59.123Z,20.93
2022-09-18T14:59:28.899Z,20.92
2022-09-18T15:02:34.115Z,20.89
2022-09-18T15:05:13.296Z,20.80
2022-09-18T15:07:53.944Z,20.82
2022-09-18T15:10:24.541Z,20.77
2022-09-18T15:12:53.711Z,20.69
2022-09-18T15:15:27.967Z,20.75
2022-09-18T15:17:57.353Z,20.67
2022-09-18T15:20:27.486Z,20.73
2022-09-18T15:22:57.053Z,20.68
2022-09-18T15:25:37.934Z,20.72
2022-09-18T15:28:07.788Z,20.68
2022-09-18T15:30:38.064Z,20.64
2022-09-18T15:33:19.097Z,20.65
2022-09-18T15:35:55.287Z,20.55
2022-09-18T15:38:40.222Z,20.61
2022-09-18T15:41:41.877Z,20.61
2022-09-18T15:44:28.855Z,20.35
2022-09-18T15:46:56.774Z,20.48
2022-09-18T15:49:30.928Z,20.49
2022-09-18T15:51:59.268Z,20.52
2022-09-18T15:54:28.739Z,20.47
2022-09-18T15:57:00.960Z,20.51
2022-09-18T15:59:38.803Z,20.52
2022-09-18T16:02:39.487Z,20.57
2022-09-18T16:05:15.056Z,20.51
2022-09-18T16:07:59.811Z,20.56
2022-09-18T16:10:51.576Z,20.55
2022-09-18T16:13:21.923Z,20.55
2022-09-18T16:16:12.399Z,20.60
2022-09-18T16:19:13.510Z,20.58
2022-09-18T16:21:44.337Z,20.53
2022-09-18T16:24:29.890Z,20.53
2022-09-18T16:27:07.929Z,20.56
2022-09-18T16:29:35.973Z,20.42
2022-09-18T16:32:08.695Z,20.48
2022-09-18T16:34:36.543Z,20.51
2022-09-18T16:37:12.331Z,20.49
2022-09-18T16:39:40.994Z,20.47
2022-09-18T16:42:18.787Z,20.48
2022-09-18T16:44:47.269Z,20.47
2022-09-18T16:47:16.210Z,20.45
2022-09-18T16:49:49.255Z,20.44
2022-09-18T16:52:17.342Z,20.46
2022-09-18T16:54:45.539Z,20.35
2022-09-18T16:57:20.528Z,20.45
2022-09-18T16:59:49.877Z,20.40
2022-09-18T17:02:24.338Z,20.41
2022-09-18T17:04:54.944Z,20.34
2022-09-18T17:07:26.051Z,20.33
2022-09-18T17:09:56.978Z,20.35
2022-09-18T17:12:26.491Z,20.30
2022-09-18T17:14:54.566Z,20.29
2022-09-18T17:17:22.335Z,20.34
2022-09-18T17:19:50.443Z,20.28
2022-09-18T17:22:22.494Z,20.28
2022-09-18T17:24:52.080Z,20.27
2022-09-18T17:27:22.807Z,20.25
2022-09-18T17:29:51.276Z,20.17
2022-09-18T17:32:19.806Z,20.19
2022-09-18T17:34:48.151Z,20.15
2022-09-18T17:37:16.110Z,20.20
2022-09-18T17:39:45.573Z,20.12
2022-09-18T17:42:17.702Z,20.12
2022-09-18T17:44:45.735Z,20.13
2022-09-18T17:47:13.704Z,20.07
2022-09-18T17:49:41.789Z,20.04
2022-09-18T17:52:10.105Z,20.05
2022-09-18T17:54:38.719Z,20.05
2022-09-18T17:57:11.613Z,20.04
2022-09-18T17:59:42.286Z,20.01
2022-09-18T18:02:13.234Z,20.05
2022-09-18T18:04:41.867Z,19.97
2022-09-18T18:07:10.384Z,20.01
2022-09-18T18:09:39.668Z,19.98
2022-09-18T18:12:09.438Z,20.00
2022-09-18T18:14:38.883Z,19.96
2022-09-18T18:17:08.665Z,19.99
2022-09-18T18:19:37.213Z,19.93
2022-09-18T18:22:06.485Z,19.93
2022-09-18T18:24:34.845Z,19.93
2022-09-18T18:27:04.958Z,19.93
2022-09-18T18:29:33.335Z,19.90
2022-09-18T18:32:02.013Z,19.84
2022-09-18T18:34:31.563Z,19.86
2022-09-18T18:37:14.671Z,19.79
2022-09-18T18:39:43.082Z,19.84
2022-09-18T18:42:12.037Z,19.78
2022-09-18T18:44:42.501Z,19.81
2022-09-18T18:47:10.875Z,19.75
2022-09-18T18:49:40.248Z,19.79
2022-09-18T18:52:12.697Z,19.76
2022-09-18T18:54:44.150Z,19.78
2022-09-18T18:57:12.079Z,19.75
2022-09-18T18:59:40.680Z,19.72
2022-09-18T19:02:11.560Z,19.82
2022-09-18T19:04:42.457Z,19.80
2022-09-18T19:07:11.841Z,19.78
2022-09-18T19:09:41.796Z,19.72
2022-09-18T19:12:13.563Z,19.77
2022-09-18T19:14:42.197Z,19.75
2022-09-18T19:17:11.443Z,19.70
2022-09-18T19:19:41.130Z,19.64
2022-09-18T19:22:17.085Z,19.59
2022-09-18T19:24:50.348Z,19.52
2022-09-18T19:27:19.146Z,19.51
2022-09-18T19:29:50.101Z,19.43
2022-09-18T19:32:20.867Z,19.40
2022-09-18T19:34:49.909Z,19.37
2022-09-18T19:37:18.480Z,19.37
2022-09-18T19:39:49.454Z,19.34
2022-09-18T19:42:18.432Z,19.24
2022-09-18T19:44:56.424Z,19.24
2022-09-18T19:47:48.721Z,19.13
2022-09-18T19:50:33.121Z,19.10
2022-09-18T19:53:01.657Z,19.00
2022-09-18T19:55:34.262Z,19.01
2022-09-18T19:58:03.215Z,19.00
2022-09-18T20:00:33.743Z,18.95
2022-09-18T20:03:02.252Z,18.94
2022-09-18T20:05:30.988Z,18.92
2022-09-18T20:08:01.623Z,18.76
2022-09-18T20:10:30.363Z,18.75
2022-09-18T20:12:59.373Z,18.74
2022-09-18T20:15:28.226Z,18.83
2022-09-18T20:17:57.347Z,18.78
2022-09-18T20:20:26.635Z,18.84
2022-09-18T20:22:56.099Z,18.79
2022-09-18T20:25:25.179Z,18.79
2022-09-18T20:27:54.076Z,18.71
2022-09-18T20:30:22.078Z,18.79
2022-09-18T20:32:51.952Z,18.78
2022-09-18T20:35:20.578Z,18.69
2022-09-18T20:37:49.024Z,18.76
2022-09-18T20:40:17.175Z,18.73
2022-09-18T20:42:51.367Z,18.67
2022-09-18T20:45:20.233Z,18.68
2022-09-18T20:47:48.791Z,18.68
2022-09-18T20:50:17.233Z,18.68
2022-09-18T20:52:45.580Z,18.67
2022-09-18T20:55:17.398Z,18.66
2022-09-18T20:57:46.347Z,18.62
2022-09-18T21:00:17.186Z,18.67
2022-09-18T21:02:51.703Z,18.66
2022-09-18T21:05:22.984Z,18.61
2022-09-18T21:07:57.919Z,18.64
2022-09-18T21:10:27.958Z,18.61
2022-09-18T21:12:59.218Z,18.63
2022-09-18T21:15:31.481Z,18.63
2022-09-18T21:18:00.366Z,18.60
2022-09-18T21:20:28.517Z,18.67
2022-09-18T21:23:15.243Z,18.67
2022-09-18T21:25:43.238Z,18.65
2022-09-18T21:28:13.702Z,18.54
2022-09-18T21:30:41.767Z,18.62
2022-09-18T21:33:10.957Z,18.65
2022-09-18T21:35:49.961Z,18.66
2022-09-18T21:38:18.209Z,18.65
2022-09-18T21:40:46.578Z,18.61
2022-09-18T21:43:15.784Z,18.55
2022-09-18T21:45:43.867Z,18.64
2022-09-18T21:48:13.267Z,18.52
2022-09-18T21:50:44.264Z,18.59
2022-09-18T21:53:12.363Z,18.46
2022-09-18T21:55:40.981Z,18.44
2022-09-18T21:58:09.489Z,18.41
2022-09-18T22:00:37.699Z,18.31
2022-09-18T22:03:08.984Z,18.00
2022-09-18T22:05:37.134Z,17.56
2022-09-18T22:08:05.775Z,17.13
2022-09-18T22:10:35.263Z,16.91
2022-09-18T22:13:03.600Z,16.62
2022-09-18T22:32:03.467Z,15.90
2022-09-18T22:34:35.196Z,15.88
2022-09-18T22:37:06.344Z,15.79
2022-09-18T22:39:36.016Z,15.88
2022-09-18T22:42:07.265Z,15.96
2022-09-18T22:44:35.710Z,15.96
2022-09-18T22:47:04.633Z,15.97
2022-09-18T22:49:32.645Z,15.89
2022-09-18T22:52:00.587Z,15.97
2022-09-18T22:54:28.705Z,15.87
2022-09-18T22:56:57.147Z,15.90
2022-09-18T22:59:26.750Z,15.89
